Time;durP1;ratioP1;P1;durP2;ratioP2;P2;SDS_P1;SDS_P2;PMS_P1;PMS_P2;Temp;Humidity;BMP_temperature;BMP_pressure;BME280_temperature;BME280_humidity;BME280_pressure;Samples;Min_cycle;Max_cycle;Signal;HPM_P1;HPM_P2
2022/01/11 00:00:08;;;;;;;151.68;30.55;;;0.60;99.90;;;;;;4855226;29;19932;-67
2022/01/11 00:02:37;;;;;;;146.75;33.72;;;0.60;99.90;;;;;;4861815;29;20087;-67
2022/01/11 00:05:03;;;;;;;163.55;33.47;;;0.60;99.90;;;;;;4857304;29;20100;-67
2022/01/11 00:07:30;;;;;;;100.35;30.23;;;0.60;99.90;;;;;;4859286;29;20494;-67
2022/01/11 00:09:57;;;;;;;125.15;29.55;;;0.60;99.90;;;;;;4858437;29;20220;-67
2022/01/11 00:12:23;;;;;;;;;;;0.50;99.90;;;;;;4861758;29;20046;-67
2022/01/11 00:14:49;;;;;;;97.20;28.80;;;0.40;99.90;;;;;;4855031;29;19924;-67
2022/01/11 00:17:14;;;;;;;127.28;32.45;;;0.50;99.90;;;;;;4858723;29;20408;-67
2022/01/11 00:19:40;;;;;;;97.60;29.17;;;0.40;99.90;;;;;;4859149;29;20079;-67
2022/01/11 00:22:15;;;;;;;108.63;30.10;;;0.50;99.90;;;;;;4858359;29;20355;-67
2022/01/11 00:24:41;;;;;;;87.05;29.75;;;0.50;99.90;;;;;;4860276;29;20045;-68
2022/01/11 00:27:09;;;;;;;171.90;34.80;;;0.40;99.90;;;;;;4859879;29;20080;-67
2022/01/11 00:29:39;;;;;;;173.02;34.67;;;0.40;99.90;;;;;;4857237;29;20054;-67
2022/01/11 00:32:10;;;;;;;223.57;36.47;;;0.40;99.90;;;;;;4860083;29;20053;-67
2022/01/11 00:34:47;;;;;;;100.28;29.58;;;0.40;99.90;;;;;;4857718;29;20057;-67
2022/01/11 00:37:13;;;;;;;;;;;0.40;99.90;;;;;;4861610;29;20046;-67
2022/01/11 00:39:42;;;;;;;83.03;26.80;;;0.30;99.90;;;;;;4852857;29;19968;-67
2022/01/11 00:42:08;;;;;;;131.93;28.13;;;0.30;99.90;;;;;;4867493;29;20163;-67
2022/01/11 00:44:34;;;;;;;;;;;0.30;99.90;;;;;;4861355;29;20110;-66
2022/01/11 00:47:00;;;;;;;69.30;24.48;;;0.20;99.90;;;;;;4862017;29;20330;-67
2022/01/11 00:49:25;;;;;;;135.47;30.77;;;0.20;99.90;;;;;;4851826;29;20061;-67
2022/01/11 00:51:51;;;;;;;69.00;26.40;;;0.20;99.90;;;;;;4857930;29;20319;-67
2022/01/11 00:54:17;;;;;;;63.87;26.50;;;0.20;99.90;;;;;;4855898;29;20118;-67
2022/01/11 00:56:42;;;;;;;78.53;26.30;;;0.20;99.90;;;;;;4875263;29;20128;-66
2022/01/11 00:59:08;;;;;;;81.13;28.07;;;0.20;99.90;;;;;;4858145;29;20097;-67
2022/01/11 01:01:37;;;;;;;72.93;26.90;;;0.20;99.90;;;;;;4852961;29;20094;-68
2022/01/11 01:04:05;;;;;;;69.95;27.13;;;0.20;99.90;;;;;;4857134;29;20083;-67
2022/01/11 01:06:31;;;;;;;95.75;29.42;;;0.20;99.90;;;;;;4856886;29;20115;-68
2022/01/11 01:08:56;;;;;;;77.13;28.50;;;0.20;99.90;;;;;;4851101;29;20179;-67
2022/01/11 01:11:22;;;;;;;55.27;26.70;;;0.20;99.90;;;;;;4869540;29;20073;-67
2022/01/11 01:13:48;;;;;;;49.87;24.83;;;0.20;99.90;;;;;;4858706;29;20137;-68
2022/01/11 01:16:13;;;;;;;48.22;27.38;;;0.10;99.90;;;;;;4859535;29;20145;-68
2022/01/11 01:18:39;;;;;;;48.67;25.93;;;0.10;99.90;;;;;;4849174;29;20068;-67
2022/01/11 01:21:05;;;;;;;48.83;25.67;;;0.10;99.90;;;;;;4860984;29;20120;-66
2022/01/11 01:23:32;;;;;;;45.63;25.65;;;0.10;99.90;;;;;;4863255;29;20466;-67
2022/01/11 01:25:58;;;;;;;51.20;25.50;;;0.10;99.90;;;;;;4851527;29;20177;-68
2022/01/11 01:28:24;;;;;;;49.80;26.13;;;0.10;99.90;;;;;;4852697;29;20058;-68
2022/01/11 01:30:51;;;;;;;56.40;26.52;;;0.10;99.90;;;;;;4860059;29;20052;-68
2022/01/11 01:33:18;;;;;;;42.50;24.67;;;0.10;99.90;;;;;;4863774;29;20076;-67
2022/01/11 01:35:50;;;;;;;48.47;27.10;;;0.00;99.90;;;;;;4857062;29;20061;-68
2022/01/11 01:38:22;;;;;;;53.80;26.98;;;0.00;99.90;;;;;;4857922;29;20080;-68
2022/01/11 01:40:49;;;;;;;44.67;26.38;;;0.00;99.90;;;;;;4853522;29;20045;-68
2022/01/11 01:43:15;;;;;;;46.47;26.63;;;0.00;99.90;;;;;;4855417;29;20110;-68
2022/01/11 01:45:46;;;;;;;42.92;25.25;;;0.00;99.90;;;;;;4851421;29;20046;-67
2022/01/11 01:48:15;;;;;;;48.33;26.02;;;0.00;99.90;;;;;;4857914;29;20054;-68
2022/01/11 01:50:42;;;;;;;42.85;25.45;;;0.00;99.90;;;;;;4860180;29;20076;-68
2022/01/11 01:53:11;;;;;;;45.08;27.13;;;0.00;99.90;;;;;;4858828;29;20061;-68
2022/01/11 01:55:41;;;;;;;45.75;25.63;;;0.00;99.90;;;;;;4846385;29;20169;-68
2022/01/11 01:58:08;;;;;;;44.08;25.35;;;0.00;99.90;;;;;;4872861;29;20069;-68
2022/01/11 02:00:40;;;;;;;44.92;26.05;;;0.00;99.90;;;;;;4852504;29;20046;-68
2022/01/11 02:03:12;;;;;;;46.20;25.70;;;0.00;99.90;;;;;;4855149;29;20050;-68
2022/01/11 02:05:40;;;;;;;41.05;24.70;;;0.00;99.90;;;;;;4855320;29;20066;-68
2022/01/11 02:08:07;;;;;;;44.63;24.88;;;-0.10;99.90;;;;;;4856697;29;20142;-68
2022/01/11 02:10:35;;;;;;;49.63;27.20;;;-0.10;99.90;;;;;;4851818;29;20045;-68
2022/01/11 02:13:00;;;;;;;50.72;25.92;;;-0.10;99.90;;;;;;4863521;29;20053;-68
2022/01/11 02:15:27;;;;;;;58.00;28.27;;;-0.10;99.90;;;;;;4850758;29;20140;-69
2022/01/11 02:17:52;;;;;;;76.40;28.05;;;-0.20;99.90;;;;;;4858001;29;20054;-68
2022/01/11 02:20:18;;;;;;;77.57;30.17;;;-0.10;99.90;;;;;;4859629;29;20120;-68
2022/01/11 02:22:44;;;;;;;107.10;32.53;;;-0.10;99.90;;;;;;4858914;29;20103;-67
2022/01/11 02:25:10;;;;;;;138.10;33.63;;;-0.10;99.90;;;;;;4850571;29;20071;-67
2022/01/11 02:27:36;;;;;;;147.20;34.33;;;0.00;99.90;;;;;;4854907;29;20073;-69
2022/01/11 02:30:04;;;;;;;109.43;31.35;;;-0.10;99.90;;;;;;4859688;29;20061;-68
2022/01/11 02:32:30;;;;;;;109.45;32.58;;;0.00;99.90;;;;;;4860404;29;20083;-68
2022/01/11 02:34:55;;;;;;;71.63;28.37;;;0.00;99.90;;;;;;4860945;29;20050;-67
2022/01/11 02:37:21;;;;;;;65.00;27.87;;;0.00;99.90;;;;;;4841046;29;20064;-67
2022/01/11 02:39:47;;;;;;;63.03;28.67;;;0.00;99.90;;;;;;4855930;29;20145;-68
2022/01/11 02:42:13;;;;;;;79.65;29.17;;;0.10;99.90;;;;;;4854731;29;20306;-68
2022/01/11 02:44:39;;;;;;;103.03;29.00;;;0.00;99.90;;;;;;4849566;29;20582;-68
2022/01/11 02:47:05;;;;;;;137.00;31.42;;;0.10;99.90;;;;;;4855218;29;20053;-67
2022/01/11 02:49:31;;;;;;;98.22;29.23;;;0.10;99.90;;;;;;4851379;29;20046;-67
2022/01/11 02:51:57;;;;;;;89.20;26.17;;;0.00;99.90;;;;;;4854704;29;20128;-68
2022/01/11 02:54:23;;;;;;;127.47;28.60;;;0.10;99.90;;;;;;4855061;29;20045;-68
2022/01/11 02:56:50;;;;;;;172.98;31.83;;;0.10;99.90;;;;;;4855205;29;20065;-68
2022/01/11 02:59:16;;;;;;;228.02;35.08;;;0.10;99.90;;;;;;4855162;29;20655;-67
2022/01/11 03:01:42;;;;;;;196.27;32.63;;;0.10;99.90;;;;;;4859494;29;20057;-67
2022/01/11 03:04:08;;;;;;;207.10;34.30;;;0.10;99.90;;;;;;4858350;29;20076;-68
2022/01/11 03:06:34;;;;;;;203.60;33.03;;;0.10;99.90;;;;;;4854392;29;20160;-68
2022/01/11 03:08:59;;;;;;;203.05;32.78;;;0.10;99.90;;;;;;4855506;29;20105;-67
2022/01/11 03:11:31;;;;;;;192.67;31.93;;;0.10;99.90;;;;;;4854805;29;20128;-68
2022/01/11 03:13:57;;;;;;;242.55;35.40;;;0.10;99.90;;;;;;4856231;29;20510;-67
2022/01/11 03:16:23;;;;;;;164.25;32.28;;;0.10;99.90;;;;;;4855250;29;20046;-67
2022/01/11 03:18:49;;;;;;;157.40;32.80;;;0.10;99.90;;;;;;4861615;29;20145;-67
2022/01/11 03:21:15;;;;;;;221.33;34.87;;;0.10;99.90;;;;;;4861899;29;20041;-67
2022/01/11 03:23:41;;;;;;;223.98;35.65;;;0.20;99.90;;;;;;4859175;29;20196;-67
2022/01/11 03:26:06;;;;;;;153.23;32.00;;;0.10;99.90;;;;;;4855426;29;20140;-67
2022/01/11 03:28:32;;;;;;;176.90;33.30;;;0.10;99.90;;;;;;4855392;29;20087;-68
2022/01/11 03:30:59;;;;;;;214.05;37.25;;;0.20;99.90;;;;;;4863168;29;20537;-67
2022/01/11 03:33:25;;;;;;;209.70;34.20;;;0.20;99.90;;;;;;4863044;29;20133;-67
2022/01/11 03:35:50;;;;;;;229.52;35.83;;;0.20;99.90;;;;;;4849127;29;20062;-68
2022/01/11 03:38:16;;;;;;;161.15;33.22;;;0.20;99.90;;;;;;4867502;29;20053;-68
2022/01/11 03:40:43;;;;;;;196.95;35.45;;;0.20;99.90;;;;;;4852881;29;20096;-67
2022/01/11 03:43:09;;;;;;;212.32;38.08;;;0.20;99.90;;;;;;4860140;29;20072;-67
2022/01/11 03:45:36;;;;;;;170.48;32.88;;;0.20;99.90;;;;;;4857461;29;20046;-67
2022/01/11 03:48:04;;;;;;;224.50;38.10;;;0.20;99.90;;;;;;4853635;29;20061;-68
2022/01/11 03:50:30;;;;;;;227.13;37.17;;;0.20;99.90;;;;;;4858235;29;20053;-68
2022/01/11 03:53:08;;;;;;;188.07;35.63;;;0.20;99.90;;;;;;4855453;29;20140;-68
2022/01/11 03:58:08;;;;;;;198.23;35.67;;;0.20;99.90;;;;;;4854560;29;20049;-67
2022/01/11 04:00:34;;;;;;;327.57;42.37;;;0.20;99.90;;;;;;4859880;29;20050;-67
2022/01/11 04:03:00;;;;;;;207.85;36.90;;;0.20;99.90;;;;;;4854430;29;20050;-68
2022/01/11 04:05:25;;;;;;;153.53;33.43;;;0.20;99.90;;;;;;4856694;29;20128;-67
2022/01/11 04:07:51;;;;;;;176.30;34.40;;;0.20;99.90;;;;;;4852385;29;20128;-67
2022/01/11 04:10:17;;;;;;;243.10;37.50;;;0.20;99.90;;;;;;4856112;29;20412;-68
2022/01/11 04:12:42;;;;;;;253.20;38.30;;;0.20;99.90;;;;;;4865190;29;20121;-68
2022/01/11 04:15:08;;;;;;;263.97;40.10;;;0.20;99.90;;;;;;4859374;29;20058;-67
2022/01/11 04:17:34;;;;;;;184.93;36.08;;;0.20;99.90;;;;;;4857471;29;20053;-68
2022/01/11 04:20:00;;;;;;;264.30;41.33;;;0.20;99.90;;;;;;4857216;29;20170;-67
2022/01/11 04:22:25;;;;;;;168.17;34.83;;;0.20;99.90;;;;;;4858102;29;20295;-67
2022/01/11 04:24:51;;;;;;;290.80;41.67;;;0.20;99.90;;;;;;4862036;29;20042;-67
2022/01/11 04:27:17;;;;;;;190.10;35.00;;;0.20;99.90;;;;;;4856236;29;20054;-67
2022/01/11 04:29:42;;;;;;;152.17;33.63;;;0.20;99.90;;;;;;4859878;29;20049;-67
2022/01/11 04:32:08;;;;;;;239.27;39.77;;;0.20;99.90;;;;;;4856697;29;20127;-67
2022/01/11 04:34:34;;;;;;;224.63;36.40;;;0.20;99.90;;;;;;4864080;29;20054;-67
2022/01/11 04:37:00;;;;;;;220.47;35.93;;;0.20;99.90;;;;;;4862718;29;20052;-68
2022/01/11 04:39:26;;;;;;;169.98;32.53;;;0.20;99.90;;;;;;4855808;29;20451;-68
2022/01/11 04:41:51;;;;;;;196.82;37.92;;;0.20;99.90;;;;;;4863877;29;20046;-67
2022/01/11 04:44:17;;;;;;;248.25;39.92;;;0.20;99.90;;;;;;4852923;29;20145;-67
2022/01/11 04:46:43;;;;;;;126.18;32.03;;;0.20;99.90;;;;;;4860177;29;20054;-68
2022/01/11 04:49:09;;;;;;;150.80;36.50;;;0.20;99.90;;;;;;4862064;29;20049;-67
2022/01/11 04:51:35;;;;;;;189.57;38.60;;;0.30;99.90;;;;;;4852453;29;20060;-68
2022/01/11 04:54:01;;;;;;;108.32;32.47;;;0.30;99.90;;;;;;4867724;29;20045;-67
2022/01/11 04:56:28;;;;;;;118.60;34.83;;;0.30;99.90;;;;;;4852324;29;20061;-68
2022/01/11 04:58:54;;;;;;;117.88;32.50;;;0.30;99.90;;;;;;4857668;29;20042;-68
2022/01/11 05:01:20;;;;;;;142.35;35.03;;;0.40;99.90;;;;;;4850008;29;20177;-68
2022/01/11 05:03:46;;;;;;;167.03;36.47;;;0.30;99.90;;;;;;4857979;29;20042;-67
2022/01/11 05:06:11;;;;;;;90.70;30.17;;;0.30;99.90;;;;;;4849549;29;20102;-68
2022/01/11 05:08:37;;;;;;;81.40;29.37;;;0.30;99.90;;;;;;4847823;29;20119;-67
2022/01/11 05:11:03;;;;;;;122.97;33.08;;;0.30;99.90;;;;;;4854469;29;20090;-68
2022/01/11 05:13:31;;;;;;;110.83;32.63;;;0.30;99.90;;;;;;4855939;29;20094;-68
2022/01/11 05:15:59;;;;;;;125.75;32.92;;;0.20;99.90;;;;;;4867034;29;20306;-68
2022/01/11 05:18:25;;;;;;;95.22;31.00;;;0.20;99.90;;;;;;4856111;29;20462;-67
2022/01/11 05:20:50;;;;;;;96.03;31.17;;;0.30;99.90;;;;;;4863072;29;20570;-67
2022/01/11 05:23:16;;;;;;;99.00;32.27;;;0.20;99.90;;;;;;4850967;29;20042;-67
2022/01/11 05:25:43;;;;;;;94.73;30.50;;;0.20;99.90;;;;;;4860744;29;20056;-67
2022/01/11 05:28:09;;;;;;;99.53;31.85;;;0.20;99.90;;;;;;4851227;29;20050;-67
2022/01/11 05:30:35;;;;;;;79.93;29.50;;;0.20;99.90;;;;;;4855810;29;20069;-68
2022/01/11 05:33:01;;;;;;;75.20;29.45;;;0.20;99.90;;;;;;4855878;29;20089;-68
2022/01/11 05:35:27;;;;;;;70.80;28.70;;;0.20;99.90;;;;;;4853640;29;20053;-67
2022/01/11 05:37:54;;;;;;;67.32;28.92;;;0.20;99.90;;;;;;4858486;29;20069;-68
2022/01/11 05:40:21;;;;;;;59.15;27.88;;;0.20;99.90;;;;;;4855869;29;20083;-68
2022/01/11 05:42:49;;;;;;;56.83;27.58;;;0.20;99.90;;;;;;4857303;29;20148;-68
2022/01/11 05:45:17;;;;;;;48.45;26.02;;;0.20;99.90;;;;;;4860153;29;20057;-68
2022/01/11 05:47:43;;;;;;;57.47;26.60;;;0.20;99.90;;;;;;4858209;29;20076;-67
2022/01/11 05:50:11;;;;;;;59.35;28.20;;;0.20;99.90;;;;;;4850667;29;20087;-67
2022/01/11 05:52:38;;;;;;;59.95;27.90;;;0.20;99.90;;;;;;4856510;29;20065;-67
2022/01/11 05:55:06;;;;;;;50.22;25.17;;;0.20;99.90;;;;;;4849673;29;20046;-67
2022/01/11 05:57:32;;;;;;;55.72;27.33;;;0.20;99.90;;;;;;4854725;29;20048;-68
2022/01/11 05:59:58;;;;;;;62.00;27.40;;;0.20;99.90;;;;;;4856177;29;20049;-67
2022/01/11 06:02:23;;;;;;;50.00;26.27;;;0.20;99.90;;;;;;4859991;29;20050;-67
2022/01/11 06:04:49;;;;;;;50.05;25.40;;;0.20;99.90;;;;;;4842567;29;20133;-68
2022/01/11 06:07:15;;;;;;;58.42;27.88;;;0.20;99.90;;;;;;4857832;29;20133;-68
2022/01/11 06:09:41;;;;;;;61.67;27.03;;;0.20;99.90;;;;;;4855907;29;20140;-68
2022/01/11 06:12:08;;;;;;;58.97;28.60;;;0.20;99.90;;;;;;4859418;29;20053;-68
2022/01/11 06:14:33;;;;;;;61.63;27.17;;;0.20;99.90;;;;;;4872527;29;20076;-68
2022/01/11 06:16:59;;;;;;;63.05;28.52;;;0.20;99.90;;;;;;4859751;29;20351;-68
2022/01/11 06:19:26;;;;;;;66.97;29.53;;;0.20;99.90;;;;;;4856153;29;20530;-68
2022/01/11 06:21:52;;;;;;;;;;;0.20;99.90;;;;;;4851972;29;20050;-68
2022/01/11 06:24:18;;;;;;;65.70;27.88;;;0.20;99.90;;;;;;4848812;29;19935;-72
2022/01/11 06:26:44;;;;;;;69.85;29.20;;;0.20;99.90;;;;;;4834779;29;20062;-68
2022/01/11 06:29:10;;;;;;;72.47;29.55;;;0.20;99.90;;;;;;4834682;29;20047;-71
2022/01/11 06:31:35;;;;;;;62.75;29.08;;;0.20;99.90;;;;;;4833814;29;20065;-69
2022/01/11 06:34:02;;;;;;;64.78;28.08;;;0.20;99.90;;;;;;4837168;29;20486;-66
2022/01/11 06:36:28;;;;;;;68.90;29.25;;;0.20;99.90;;;;;;4849299;29;20042;-70
2022/01/11 06:38:54;;;;;;;72.32;31.15;;;0.20;99.90;;;;;;4842932;29;20092;-69
2022/01/11 06:41:20;;;;;;;68.40;28.70;;;0.20;99.90;;;;;;4863036;29;20046;-69
2022/01/11 06:43:46;;;;;;;65.93;29.10;;;0.20;99.90;;;;;;4840249;29;20070;-69
2022/01/11 06:46:11;;;;;;;55.73;26.87;;;0.20;99.90;;;;;;4861565;29;20810;-70
2022/01/11 06:48:37;;;;;;;67.68;28.50;;;0.20;99.90;;;;;;4857984;29;20068;-69
2022/01/11 06:51:03;;;;;;;56.50;26.63;;;0.20;99.90;;;;;;4852929;29;20050;-67
2022/01/11 06:53:31;;;;;;;60.58;28.63;;;0.20;99.90;;;;;;4857308;29;20046;-68
2022/01/11 06:55:57;;;;;;;64.57;28.05;;;0.20;99.90;;;;;;4835123;29;20065;-68
2022/01/11 06:58:22;;;;;;;68.60;29.88;;;0.20;99.90;;;;;;4842683;29;20053;-68
2022/01/11 07:00:48;;;;;;;63.60;28.00;;;0.20;99.90;;;;;;4839309;29;20046;-68
2022/01/11 07:03:18;;;;;;;76.25;29.80;;;0.20;99.90;;;;;;4845313;29;20137;-74
2022/01/11 07:05:44;;;;;;;62.95;26.98;;;0.20;99.90;;;;;;4852339;29;20056;-71
2022/01/11 07:08:11;;;;;;;67.97;28.05;;;0.20;99.90;;;;;;4873795;29;20140;-70
2022/01/11 07:10:36;;;;;;;;;;;0.20;99.90;;;;;;4858019;29;20786;-70
2022/01/11 07:13:02;;;;;;;60.15;28.27;;;0.20;99.90;;;;;;4864503;29;20048;-71
2022/01/11 07:15:29;;;;;;;62.88;27.70;;;0.20;99.90;;;;;;4863643;29;20085;-71
2022/01/11 07:17:55;;;;;;;;;;;0.20;99.90;;;;;;4862656;29;20069;-68
2022/01/11 07:20:22;;;;;;;67.53;27.65;;;0.20;99.90;;;;;;4853424;29;19931;-67
2022/01/11 07:22:47;;;;;;;71.55;28.50;;;0.20;99.90;;;;;;4858526;29;20050;-71
2022/01/11 07:25:13;;;;;;;67.30;28.23;;;0.20;99.90;;;;;;4859093;29;20050;-70
2022/01/11 07:27:39;;;;;;;63.60;27.95;;;0.20;99.90;;;;;;4866251;29;20158;-67
2022/01/11 07:30:06;;;;;;;63.73;27.03;;;0.20;99.90;;;;;;4847368;29;20613;-71
2022/01/11 07:32:33;;;;;;;62.55;28.80;;;0.30;99.90;;;;;;4860689;29;20060;-74
2022/01/11 07:34:59;;;;;;;67.05;28.85;;;0.30;99.90;;;;;;4850261;29;20170;-69
2022/01/11 07:37:25;;;;;;;64.10;28.92;;;0.30;99.90;;;;;;4851121;29;20748;-71
2022/01/11 07:39:51;;;;;;;67.70;28.70;;;0.30;99.90;;;;;;4849422;29;20050;-72
2022/01/11 07:42:17;;;;;;;66.05;29.23;;;0.30;99.90;;;;;;4845798;29;20058;-73
2022/01/11 07:44:44;;;;;;;63.15;27.98;;;0.30;99.90;;;;;;4858490;29;20069;-71
2022/01/11 07:47:10;;;;;;;65.13;26.73;;;0.30;99.90;;;;;;4864726;29;20136;-73
2022/01/11 07:49:35;;;;;;;71.93;28.90;;;0.30;99.90;;;;;;4867324;29;20145;-73
2022/01/11 07:52:01;;;;;;;64.67;28.30;;;0.40;99.90;;;;;;4864220;29;20109;-71
2022/01/11 07:54:27;;;;;;;72.32;28.80;;;0.40;99.90;;;;;;4865739;29;20093;-70
2022/01/11 07:56:53;;;;;;;57.87;26.10;;;0.40;99.90;;;;;;4867086;29;20045;-71
2022/01/11 07:59:19;;;;;;;70.87;28.97;;;0.40;99.90;;;;;;4876878;29;20049;-70
2022/01/11 08:01:44;;;;;;;71.63;27.40;;;0.40;99.90;;;;;;4864380;29;20045;-74
2022/01/11 08:04:10;;;;;;;61.20;26.83;;;0.40;99.90;;;;;;4864567;29;20070;-69
2022/01/11 08:06:36;;;;;;;68.82;28.58;;;0.40;99.90;;;;;;4851771;29;20989;-65
2022/01/11 08:09:03;;;;;;;70.17;29.20;;;0.50;99.90;;;;;;4866555;29;20057;-68
2022/01/11 08:11:29;;;;;;;71.72;29.20;;;0.40;99.90;;;;;;4864833;29;20082;-68
2022/01/11 08:13:55;;;;;;;64.97;28.35;;;0.50;99.90;;;;;;4868124;29;20068;-68
2022/01/11 08:16:21;;;;;;;60.50;28.05;;;0.50;99.90;;;;;;4857332;29;20082;-67
2022/01/11 08:18:47;;;;;;;61.70;26.83;;;0.50;99.90;;;;;;4838036;29;20158;-65
2022/01/11 08:21:13;;;;;;;56.20;28.27;;;0.50;99.90;;;;;;4865902;29;20102;-68
2022/01/11 08:23:38;;;;;;;61.45;27.85;;;0.50;99.90;;;;;;4856137;29;20058;-68
2022/01/11 08:26:05;;;;;;;59.97;26.87;;;0.50;99.90;;;;;;4864581;29;20049;-70
2022/01/11 08:28:31;;;;;;;68.60;27.63;;;0.60;99.90;;;;;;4868569;29;20069;-69
2022/01/11 08:30:57;;;;;;;66.00;27.92;;;0.60;99.90;;;;;;4860799;29;20085;-68
2022/01/11 08:33:24;;;;;;;66.30;27.63;;;0.60;99.90;;;;;;4862088;29;20049;-71
2022/01/11 08:35:49;;;;;;;;;;;0.60;99.90;;;;;;4857356;29;20045;-68
2022/01/11 08:38:15;;;;;;;67.88;27.75;;;0.60;99.90;;;;;;4859925;29;19924;-68
2022/01/11 08:40:41;;;;;;;56.38;25.67;;;0.60;99.90;;;;;;4865689;29;20073;-67
2022/01/11 08:43:07;;;;;;;65.70;26.93;;;0.60;99.90;;;;;;4858026;29;20050;-67
2022/01/11 08:45:33;;;;;;;62.78;27.25;;;0.60;99.90;;;;;;4859919;29;20068;-67
2022/01/11 08:47:59;;;;;;;65.63;28.67;;;0.60;99.90;;;;;;4860487;29;20049;-67
2022/01/11 08:50:25;;;;;;;67.43;28.03;;;0.60;99.90;;;;;;4858805;29;20105;-70
2022/01/11 08:52:51;;;;;;;65.80;28.63;;;0.60;99.90;;;;;;4853495;29;20510;-70
2022/01/11 08:55:18;;;;;;;64.28;28.30;;;0.60;99.90;;;;;;4853036;29;20099;-70
2022/01/11 08:57:44;;;;;;;56.42;26.40;;;0.70;99.90;;;;;;4852939;29;20037;-71
2022/01/11 09:00:16;;;;;;;59.47;27.75;;;0.70;99.90;;;;;;4851730;29;20102;-71
2022/01/11 09:02:51;;;;;;;59.40;26.90;;;0.70;99.90;;;;;;4853374;29;20045;-70
2022/01/11 09:05:18;;;;;;;66.40;27.95;;;0.70;99.90;;;;;;4862892;29;20060;-70
2022/01/11 09:07:44;;;;;;;65.30;27.73;;;0.70;99.90;;;;;;4868421;29;20053;-68
2022/01/11 09:10:11;;;;;;;63.00;26.92;;;0.70;99.90;;;;;;4867180;29;20058;-68
2022/01/11 09:12:37;;;;;;;59.58;27.40;;;0.70;99.90;;;;;;4867150;29;20383;-70
2022/01/11 09:15:06;;;;;;;57.92;26.13;;;0.70;99.90;;;;;;4868162;29;20074;-66
2022/01/11 09:17:41;;;;;;;57.85;25.80;;;0.70;99.90;;;;;;4862458;29;20105;-68
2022/01/11 09:20:11;;;;;;;53.28;25.02;;;0.80;99.90;;;;;;4867330;29;20049;-70
2022/01/11 09:22:38;;;;;;;55.22;22.83;;;0.70;99.90;;;;;;4863147;29;20101;-72
2022/01/11 09:25:04;;;;;;;49.85;24.88;;;0.70;99.90;;;;;;4870672;29;20128;-71
2022/01/11 09:27:29;;;;;;;48.38;22.88;;;0.70;99.90;;;;;;4862470;29;20044;-70
2022/01/11 09:29:55;;;;;;;47.20;22.33;;;0.70;99.90;;;;;;4868234;29;20069;-71
2022/01/11 09:32:21;;;;;;;47.70;23.77;;;0.70;99.90;;;;;;4863964;29;20048;-70
2022/01/11 09:34:47;;;;;;;43.60;21.20;;;0.70;99.90;;;;;;4865812;29;20086;-68
2022/01/11 09:37:13;;;;;;;49.87;22.13;;;0.70;99.90;;;;;;4860522;29;20046;-66
2022/01/11 09:39:39;;;;;;;43.42;20.67;;;0.80;99.90;;;;;;4866536;29;20061;-71
2022/01/11 09:42:07;;;;;;;43.55;19.88;;;0.80;99.90;;;;;;4851442;29;20515;-78
2022/01/11 09:44:34;;;;;;;43.85;21.15;;;0.80;99.90;;;;;;4840831;29;20073;-73
2022/01/11 09:47:00;;;;;;;40.17;20.00;;;0.80;99.90;;;;;;4849389;29;20050;-73
2022/01/11 09:49:26;;;;;;;42.50;21.35;;;0.80;99.90;;;;;;4850850;29;20125;-67
2022/01/11 09:51:52;;;;;;;37.70;19.67;;;0.80;99.90;;;;;;4849572;29;20046;-70
2022/01/11 09:54:19;;;;;;;40.15;20.63;;;0.80;99.90;;;;;;4819216;29;20050;-65
2022/01/11 09:56:45;;;;;;;37.60;19.52;;;0.90;99.90;;;;;;4832244;29;20114;-71
2022/01/11 09:59:11;;;;;;;39.88;19.90;;;0.90;99.90;;;;;;4837369;29;20153;-74
2022/01/11 10:01:37;;;;;;;34.60;19.30;;;0.90;99.90;;;;;;4833880;29;20145;-69
2022/01/11 10:04:06;;;;;;;34.53;18.73;;;0.90;99.90;;;;;;4816886;29;20140;-70
2022/01/11 10:06:39;;;;;;;36.45;19.13;;;0.90;99.90;;;;;;4832446;29;20062;-70
2022/01/11 10:09:09;;;;;;;31.50;17.48;;;0.90;99.90;;;;;;4833180;29;20050;-69
2022/01/11 10:11:41;;;;;;;33.20;18.52;;;0.90;99.90;;;;;;4832606;29;20066;-69
2022/01/11 10:14:20;;;;;;;36.05;19.90;;;0.90;99.90;;;;;;4839902;29;20094;-69
2022/01/11 10:16:46;;;;;;;33.70;18.90;;;1.00;99.90;;;;;;4850274;29;20061;-69
2022/01/11 10:19:24;;;;;;;32.03;18.80;;;1.00;99.90;;;;;;4846796;29;20053;-69
2022/01/11 10:21:51;;;;;;;31.55;17.63;;;1.00;99.90;;;;;;4843188;29;20072;-68
2022/01/11 10:24:35;;;;;;;30.50;17.88;;;1.00;99.90;;;;;;4851425;29;20218;-68
2022/01/11 10:27:08;;;;;;;32.22;18.42;;;1.00;99.90;;;;;;4846498;29;20077;-68
2022/01/11 10:29:38;;;;;;;29.85;17.33;;;1.00;99.90;;;;;;4851585;29;20053;-68
2022/01/11 10:32:38;;;;;;;31.67;17.23;;;1.00;99.90;;;;;;4868662;29;20170;-68
2022/01/11 10:35:11;;;;;;;29.75;18.60;;;0.90;99.90;;;;;;4797573;29;20490;-68
2022/01/11 10:37:42;;;;;;;32.08;18.05;;;0.90;99.90;;;;;;4812369;29;20130;-68
2022/01/11 10:40:13;;;;;;;33.45;18.02;;;0.90;99.90;;;;;;4785093;29;20334;-68
2022/01/11 10:42:48;;;;;;;34.28;18.75;;;0.90;99.90;;;;;;4793663;29;20055;-68
2022/01/11 10:45:14;;;;;;;32.38;18.65;;;0.90;99.90;;;;;;4779680;29;20059;-68
2022/01/11 10:47:43;;;;;;;34.10;18.37;;;0.90;99.90;;;;;;4779149;30;20074;-68
2022/01/11 10:50:22;;;;;;;29.88;18.48;;;0.90;99.90;;;;;;4779180;30;20062;-70
2022/01/11 10:52:48;;;;;;;33.35;18.45;;;0.90;99.90;;;;;;4793723;29;20555;-71
2022/01/11 10:55:17;;;;;;;33.28;18.40;;;1.00;99.90;;;;;;4794541;29;20062;-67
2022/01/11 10:57:47;;;;;;;29.52;17.63;;;1.00;99.90;;;;;;4794029;29;20097;-72
2022/01/11 11:00:18;;;;;;;31.95;18.73;;;1.00;99.90;;;;;;4764282;30;20059;-69
2022/01/11 11:02:51;;;;;;;32.42;18.38;;;1.00;99.90;;;;;;4778767;30;20051;-69
2022/01/11 11:05:44;;;;;;;33.30;17.90;;;1.00;99.90;;;;;;4789504;30;20071;-71
2022/01/11 11:08:14;;;;;;;30.42;17.85;;;1.00;99.90;;;;;;4782421;30;20169;-67
2022/01/11 11:10:49;;;;;;;32.80;18.08;;;1.10;99.90;;;;;;4805940;29;20059;-70
2022/01/11 11:13:27;;;;;;;38.50;18.83;;;1.20;99.90;;;;;;4837935;29;20058;-75
2022/01/11 11:15:56;;;;;;;32.75;18.23;;;1.20;99.90;;;;;;4853727;29;20102;-70
2022/01/11 11:18:28;;;;;;;36.35;19.17;;;1.30;99.90;;;;;;4853578;29;20042;-72
2022/01/11 11:20:55;;;;;;;34.28;18.77;;;1.40;99.90;;;;;;4853354;29;20500;-72
2022/01/11 11:23:22;;;;;;;33.75;19.63;;;1.40;99.90;;;;;;4847353;29;20054;-72
2022/01/11 11:25:48;;;;;;;32.50;18.17;;;1.50;99.90;;;;;;4836135;29;20563;-72
2022/01/11 11:28:13;;;;;;;30.95;17.58;;;1.60;99.90;;;;;;4837590;29;20062;-71
2022/01/11 11:30:39;;;;;;;29.23;18.27;;;1.80;99.90;;;;;;4836551;29;20354;-72
2022/01/11 11:33:06;;;;;;;34.10;18.20;;;1.90;99.90;;;;;;4839925;29;20074;-72
2022/01/11 11:35:32;;;;;;;33.05;17.33;;;2.00;99.90;;;;;;4852987;29;20053;-72
2022/01/11 11:38:00;;;;;;;;;;;2.20;99.90;;;;;;4851950;29;20053;-73
2022/01/11 11:40:27;;;;;;;28.05;17.27;;;2.30;99.90;;;;;;4842627;29;19925;-74
2022/01/11 11:42:59;;;;;;;28.42;17.23;;;2.40;99.90;;;;;;4840216;29;20079;-73
2022/01/11 11:45:45;;;;;;;32.15;17.75;;;2.50;99.90;;;;;;4853270;29;20058;-70
2022/01/11 11:48:13;;;;;;;28.92;16.80;;;2.60;99.90;;;;;;4849060;29;20061;-72
2022/01/11 11:50:57;;;;;;;27.13;16.40;;;2.60;99.90;;;;;;4834554;29;20495;-75
2022/01/11 11:53:26;;;;;;;28.25;16.85;;;2.70;99.90;;;;;;4837019;29;20046;-68
2022/01/11 11:56:17;;;;;;;25.65;16.42;;;2.70;99.90;;;;;;4836068;29;20144;-67
2022/01/11 11:58:52;;;;;;;32.10;17.45;;;2.60;99.90;;;;;;4838337;29;20069;-73
2022/01/11 12:01:34;;;;;;;28.23;17.50;;;2.60;99.90;;;;;;4834600;29;20064;-65
2022/01/11 12:03:59;;;;;;;25.45;16.05;;;2.60;99.90;;;;;;4835981;29;20070;-71
2022/01/11 12:06:26;;;;;;;27.17;17.73;;;2.60;99.90;;;;;;4852817;29;20144;-72
2022/01/11 12:09:06;;;;;;;29.08;16.67;;;2.60;99.90;;;;;;4848333;29;20058;-72
2022/01/11 12:11:38;;;;;;;26.38;16.02;;;2.60;99.90;;;;;;4865065;29;20532;-70
2022/01/11 12:14:05;;;;;;;34.42;17.33;;;2.60;99.90;;;;;;4876986;29;20053;-71
2022/01/11 12:16:35;;;;;;;28.77;17.35;;;2.60;99.90;;;;;;4870611;29;20192;-68
2022/01/11 12:19:11;;;;;;;31.25;18.42;;;2.60;99.90;;;;;;4851353;29;20090;-71
2022/01/11 12:21:43;;;;;;;26.50;16.73;;;2.50;99.90;;;;;;4853622;29;20050;-71
2022/01/11 12:24:09;;;;;;;30.50;17.90;;;2.50;99.90;;;;;;4850720;29;20486;-71
2022/01/11 12:26:37;;;;;;;;;;;2.50;99.90;;;;;;4852996;29;20050;-71
2022/01/11 12:29:02;;;;;;;29.73;17.13;;;2.50;99.90;;;;;;4850742;29;19963;-71
2022/01/11 12:31:33;;;;;;;25.97;16.47;;;2.50;99.90;;;;;;4853851;29;20407;-72
2022/01/11 12:34:00;;;;;;;30.20;17.27;;;2.50;99.90;;;;;;4838272;29;20046;-70
2022/01/11 12:36:59;;;;;;;28.58;17.92;;;2.50;99.90;;;;;;4854913;29;20102;-71
2022/01/11 12:39:26;;;;;;;31.30;18.40;;;2.50;99.90;;;;;;4861992;29;20113;-71
2022/01/11 12:41:53;;;;;;;29.15;17.60;;;2.50;99.90;;;;;;4875006;29;20062;-71